Time;durP1;ratioP1;P1;durP2;ratioP2;P2;SDS_P1;SDS_P2;PMS_P1;PMS_P2;Temp;Humidity;BMP_temperature;BMP_pressure;BME280_temperature;BME280_humidity;BME280_pressure;Samples;Min_cycle;Max_cycle;Signal;HPM_P1;HPM_P2
2023/06/28 00:00:15;;;;;;;11.23;4.40;;;;;;;15.72;100.00;101568.63;6219320;23;20004;-75
2023/06/28 00:02:41;;;;;;;10.77;4.00;;;;;;;15.71;100.00;101564.09;6220643;23;20462;-76
2023/06/28 00:05:09;;;;;;;13.93;4.30;;;;;;;15.72;100.00;101563.09;6220988;23;20040;-75
2023/06/28 00:07:36;;;;;;;11.55;3.53;;;;;;;15.68;100.00;101569.94;6220818;23;20023;-76
2023/06/28 00:10:03;;;;;;;11.82;3.90;;;;;;;15.69;100.00;101556.00;6221080;23;20305;-75
2023/06/28 00:12:30;;;;;;;10.93;3.40;;;;;;;15.95;100.00;101561.06;6247324;23;20004;-75
2023/06/28 00:14:56;;;;;;;6.85;3.10;;;;;;;15.95;100.00;101564.72;6195472;23;20015;-75
2023/06/28 00:17:29;;;;;;;6.95;2.83;;;;;;;15.92;100.00;101565.00;6194892;23;20016;-75
2023/06/28 00:19:54;;;;;;;13.15;3.22;;;;;;;15.85;100.00;101566.53;6247280;23;20062;-76
2023/06/28 00:22:23;;;;;;;8.35;3.67;;;;;;;16.00;100.00;101567.03;6220653;23;20015;-75
2023/06/28 00:24:49;;;;;;;6.63;2.85;;;;;;;16.12;100.00;101563.16;6195799;23;20015;-75
2023/06/28 00:27:15;;;;;;;10.10;3.53;;;;;;;16.23;100.00;101566.81;6220849;23;20022;-75
2023/06/28 00:29:40;;;;;;;9.50;3.28;;;;;;;16.23;100.00;101561.31;6247238;23;20012;-76
2023/06/28 00:32:06;;;;;;;15.13;3.85;;;;;;;16.37;100.00;101568.34;6247500;23;20016;-75
2023/06/28 00:34:31;;;;;;;12.88;3.95;;;;;;;16.31;100.00;101565.09;6220449;23;20016;-74
2023/06/28 00:36:57;;;;;;;13.07;3.50;;;;;;;16.24;100.00;101568.59;6220949;23;20008;-75
2023/06/28 00:39:22;;;;;;;10.27;3.50;;;;;;;16.08;100.00;101569.09;6220508;23;20008;-75
2023/06/28 00:41:48;;;;;;;10.50;3.97;;;;;;;16.05;100.00;101578.53;6196044;23;20012;-75
2023/06/28 00:44:13;;;;;;;6.00;3.40;;;;;;;16.06;100.00;101576.66;6247066;23;20016;-75
2023/06/28 00:46:38;;;;;;;12.40;3.97;;;;;;;16.11;100.00;101577.97;6195138;23;20083;-75
2023/06/28 00:49:04;;;;;;;11.95;3.63;;;;;;;16.11;100.00;101572.47;6220073;23;20008;-75
2023/06/28 00:51:31;;;;;;;7.22;3.38;;;;;;;16.27;100.00;101583.00;6247158;23;20008;-76
2023/06/28 00:53:58;;;;;;;10.60;4.05;;;;;;;16.35;100.00;101574.00;6195713;23;20016;-75
2023/06/28 00:56:24;;;;;;;8.95;3.40;;;;;;;16.32;100.00;101583.44;6220486;23;20027;-75
2023/06/28 00:58:50;;;;;;;12.10;4.03;;;;;;;16.40;100.00;101582.75;6247379;23;20066;-75
2023/06/28 01:01:16;;;;;;;17.55;3.58;;;;;;;16.18;100.00;101578.28;6194959;23;20008;-75
2023/06/28 01:03:42;;;;;;;13.55;4.13;;;;;;;16.32;100.00;101563.22;6219947;23;20015;-75
2023/06/28 01:06:12;;;;;;;12.27;4.30;;;;;;;16.19;100.00;101566.25;6246804;23;20083;-75
2023/06/28 01:08:39;;;;;;;8.52;3.65;;;;;;;16.38;100.00;101572.81;6171140;23;20065;-75
2023/06/28 01:11:06;;;;;;;15.05;4.25;;;;;;;16.41;100.00;101575.31;6195050;23;20112;-76
2023/06/28 01:13:34;;;;;;;12.68;3.72;;;;;;;16.33;100.00;101571.38;6220245;23;20012;-75
2023/06/28 01:16:00;;;;;;;7.93;4.13;;;;;;;16.35;100.00;101576.75;6247014;23;20008;-75
2023/06/28 01:18:26;;;;;;;9.18;4.22;;;;;;;16.41;100.00;101581.69;6246233;23;20455;-76
2023/06/28 01:20:55;;;;;;;9.07;4.13;;;;;;;16.27;100.00;101574.69;6219738;23;20309;-75
2023/06/28 01:23:25;;;;;;;14.82;4.13;;;;;;;16.25;100.00;101576.75;6195362;23;20105;-75
2023/06/28 01:25:51;;;;;;;7.35;3.40;;;;;;;16.22;100.00;101567.88;6219802;23;20027;-75
2023/06/28 01:28:19;;;;;;;13.63;4.15;;;;;;;16.39;100.00;101578.22;6219994;23;20027;-75
2023/06/28 01:30:48;;;;;;;15.60;4.13;;;;;;;16.32;100.00;101574.28;6246277;23;20011;-75
2023/06/28 01:33:14;;;;;;;11.02;3.80;;;;;;;16.34;100.00;101566.72;6195516;23;20015;-76
2023/06/28 01:35:40;;;;;;;10.23;3.65;;;;;;;16.42;100.00;101571.53;6195069;23;20026;-76
2023/06/28 01:38:07;;;;;;;12.35;3.05;;;;;;;16.41;100.00;101565.13;6170715;23;20012;-75
2023/06/28 01:40:35;;;;;;;9.18;3.00;;;;;;;16.29;100.00;101563.50;6195069;23;20039;-75
2023/06/28 01:43:06;;;;;;;8.75;2.70;;;;;;;16.13;100.00;101537.31;6246528;23;20316;-75
2023/06/28 01:45:35;;;;;;;7.07;2.30;;;;;;;16.19;100.00;101551.56;6220728;23;20008;-75
2023/06/28 01:48:01;;;;;;;5.15;2.88;;;;;;;16.25;100.00;101571.22;6220565;23;20047;-75
2023/06/28 01:50:28;;;;;;;8.65;2.53;;;;;;;16.23;100.00;101559.41;6219685;23;20004;-75
2023/06/28 01:52:59;;;;;;;11.50;2.45;;;;;;;16.09;100.00;101559.81;6170082;23;20428;-75
2023/06/28 01:55:25;;;;;;;7.00;2.50;;;;;;;16.08;100.00;101561.69;6246960;23;20389;-77
2023/06/28 01:57:51;;;;;;;10.95;2.75;;;;;;;16.05;100.00;101547.28;6219948;23;20048;-76
2023/06/28 02:00:17;;;;;;;6.25;2.40;;;;;;;16.12;100.00;101557.66;6195586;23;20043;-76
2023/06/28 02:02:45;;;;;;;5.95;2.30;;;;;;;16.28;100.00;101564.50;6219713;23;20015;-77
2023/06/28 02:05:11;;;;;;;7.15;3.13;;;;;;;16.28;100.00;101564.50;6246902;23;20008;-76
2023/06/28 02:07:37;;;;;;;5.35;2.50;;;;;;;16.16;100.00;101558.22;6194821;23;20018;-76
2023/06/28 02:10:03;;;;;;;10.32;3.38;;;;;;;16.28;100.00;101575.56;6194006;23;20054;-76
2023/06/28 02:12:29;;;;;;;11.02;3.75;;;;;;;16.27;100.00;101562.78;6219320;23;20008;-76
2023/06/28 02:14:54;;;;;;;12.90;3.65;;;;;;;16.33;100.00;101551.13;6194369;23;20374;-76
2023/06/28 02:17:23;;;;;;;14.52;4.22;;;;;;;16.44;100.00;101570.38;6194162;23;20024;-76
2023/06/28 02:19:49;;;;;;;10.30;3.47;;;;;;;16.46;100.00;101561.94;6195087;23;20331;-77
2023/06/28 02:22:16;;;;;;;11.15;3.40;;;;;;;16.12;100.00;101551.25;6169623;23;20008;-76
2023/06/28 02:24:42;;;;;;;7.35;3.60;;;;;;;16.20;100.00;101564.34;6194294;23;20510;-76
2023/06/28 02:27:10;;;;;;;9.73;3.35;;;;;;;16.22;100.00;101565.09;6219316;23;20067;-76
2023/06/28 02:29:36;;;;;;;9.70;3.50;;;;;;;16.14;100.00;101561.13;6194563;23;20008;-76
2023/06/28 02:32:02;;;;;;;8.00;3.25;;;;;;;16.21;100.00;101558.69;6194074;23;20326;-77
2023/06/28 02:34:28;;;;;;;8.98;3.30;;;;;;;16.04;100.00;101563.00;6219324;23;20095;-76
2023/06/28 02:36:53;;;;;;;12.13;4.43;;;;;;;16.04;100.00;101568.53;6219482;23;20432;-76
2023/06/28 02:39:19;;;;;;;14.50;4.63;;;;;;;15.92;100.00;101544.75;6219292;23;20043;-76
2023/06/28 02:41:45;;;;;;;13.63;5.40;;;;;;;15.84;100.00;101570.34;6169428;23;20061;-76
2023/06/28 02:44:10;;;;;;;11.30;5.03;;;;;;;15.75;100.00;101557.31;6219399;23;20074;-76
2023/06/28 02:46:35;;;;;;;13.85;5.18;;;;;;;15.76;100.00;101567.38;6219253;23;20012;-77
2023/06/28 02:49:06;;;;;;;14.48;5.53;;;;;;;15.83;100.00;101567.72;6219143;23;20007;-77
2023/06/28 02:51:32;;;;;;;14.93;5.25;;;;;;;15.77;100.00;101555.31;6193769;23;20043;-77
2023/06/28 02:53:57;;;;;;;11.27;5.75;;;;;;;15.73;100.00;101562.97;6169205;23;20062;-76
2023/06/28 02:56:23;;;;;;;13.27;6.30;;;;;;;15.74;100.00;101570.25;6219240;23;20031;-77
2023/06/28 02:58:52;;;;;;;13.10;6.00;;;;;;;15.80;100.00;101566.94;6245718;23;20451;-76
2023/06/28 03:01:20;;;;;;;12.55;6.00;;;;;;;15.66;100.00;101541.56;6194091;23;20000;-77
2023/06/28 03:03:47;;;;;;;16.23;6.75;;;;;;;15.77;100.00;101560.84;6219400;23;20008;-76
2023/06/28 03:06:14;;;;;;;12.90;6.22;;;;;;;15.61;100.00;101564.94;6193867;23;20019;-77
2023/06/28 03:08:40;;;;;;;15.93;6.40;;;;;;;15.67;100.00;101566.28;6193937;23;20015;-77
2023/06/28 03:11:06;;;;;;;19.55;6.97;;;;;;;15.66;100.00;101569.16;6193968;23;20009;-77
2023/06/28 03:13:33;;;;;;;16.85;7.10;;;;;;;15.62;100.00;101572.19;6219227;23;20019;-77
2023/06/28 03:15:59;;;;;;;32.00;8.20;;;;;;;15.69;100.00;101564.28;6194063;23;20008;-76
2023/06/28 03:18:24;;;;;;;18.35;8.93;;;;;;;15.80;100.00;101568.84;6218324;23;20024;-76
2023/06/28 03:20:50;;;;;;;29.98;9.15;;;;;;;15.75;100.00;101573.88;6245740;23;20499;-76
2023/06/28 03:23:15;;;;;;;19.88;7.72;;;;;;;15.50;100.00;101566.94;6218789;23;20120;-77
2023/06/28 03:25:41;;;;;;;15.45;7.45;;;;;;;15.48;100.00;101563.41;6219217;23;20020;-76
2023/06/28 03:28:06;;;;;;;16.92;6.55;;;;;;;15.49;100.00;101560.50;6194225;23;20008;-77
2023/06/28 03:30:31;;;;;;;17.85;7.13;;;;;;;15.48;100.00;101567.06;6218600;23;20012;-76
2023/06/28 03:32:57;;;;;;;13.20;6.18;;;;;;;15.41;100.00;101546.50;6193933;23;20015;-77
2023/06/28 03:35:22;;;;;;;17.75;6.30;;;;;;;15.34;100.00;101557.22;6194246;23;20021;-77
2023/06/28 03:37:52;;;;;;;14.35;6.63;;;;;;;15.43;100.00;101553.66;6171205;23;20019;-76
2023/06/28 03:40:17;;;;;;;15.40;6.95;;;;;;;15.42;100.00;101554.66;6196505;23;20061;-76
2023/06/28 03:42:43;;;;;;;16.42;7.18;;;;;;;15.54;100.00;101549.06;6195586;23;20649;-77
2023/06/28 03:45:09;;;;;;;10.57;6.47;;;;;;;15.46;100.00;101546.13;6195782;23;20154;-77
2023/06/28 03:47:34;;;;;;;14.27;6.00;;;;;;;15.41;100.00;101552.03;6195842;23;20058;-76
2023/06/28 03:49:59;;;;;;;13.02;6.35;;;;;;;15.30;100.00;101541.06;6195943;23;20016;-77
2023/06/28 03:52:25;;;;;;;14.68;6.80;;;;;;;15.49;100.00;101549.47;6195872;23;20087;-76
2023/06/28 03:54:50;;;;;;;16.45;7.03;;;;;;;15.50;100.00;101545.72;6170993;23;20047;-76
2023/06/28 03:57:16;;;;;;;17.63;8.07;;;;;;;15.61;100.00;101542.00;6220559;23;20090;-77
2023/06/28 03:59:41;;;;;;;16.33;5.82;;;;;;;15.42;100.00;101542.75;6195759;23;20043;-77
2023/06/28 04:02:07;;;;;;;17.25;5.40;;;;;;;15.35;100.00;101538.81;6220808;23;20122;-77
2023/06/28 04:04:33;;;;;;;14.18;6.10;;;;;;;15.35;100.00;101536.91;6220583;23;20008;-76
2023/06/28 04:07:02;;;;;;;13.55;5.35;;;;;;;15.38;100.00;101541.25;6247502;23;20038;-76
2023/06/28 04:09:28;;;;;;;12.40;5.78;;;;;;;15.44;100.00;101532.44;6195654;23;20004;-77
2023/06/28 04:11:53;;;;;;;17.05;6.70;;;;;;;15.45;100.00;101534.22;6220465;23;20413;-76
2023/06/28 04:14:18;;;;;;;13.05;5.30;;;;;;;15.32;100.00;101539.06;6195633;23;20020;-76
2023/06/28 04:16:44;;;;;;;13.93;5.85;;;;;;;15.45;100.00;101534.22;6195543;23;20075;-77
2023/06/28 04:19:09;;;;;;;14.75;6.40;;;;;;;15.29;100.00;101520.03;6170394;23;20019;-77
2023/06/28 04:21:35;;;;;;;11.15;5.70;;;;;;;15.39;100.00;101512.66;6171482;23;20397;-77
2023/06/28 04:24:00;;;;;;;12.18;6.63;;;;;;;15.55;100.00;101520.47;6220497;23;20016;-77
2023/06/28 04:26:26;;;;;;;22.42;7.30;;;;;;;15.67;100.00;101535.91;6170751;23;20432;-77
2023/06/28 04:28:52;;;;;;;14.93;5.88;;;;;;;15.65;100.00;101532.41;6195444;23;20320;-76
2023/06/28 04:31:17;;;;;;;14.27;6.60;;;;;;;15.63;100.00;101540.84;6194894;23;20026;-77
2023/06/28 04:33:42;;;;;;;11.13;5.82;;;;;;;15.46;100.00;101532.31;6247441;23;20379;-73
2023/06/28 04:36:09;;;;;;;15.63;5.88;;;;;;;15.52;100.00;101534.53;6220504;23;20016;-74
2023/06/28 04:38:35;;;;;;;9.80;5.93;;;;;;;15.49;100.00;101534.81;6195288;23;20012;-75
2023/06/28 04:41:00;;;;;;;14.27;5.90;;;;;;;15.63;100.00;101538.06;6195179;23;20012;-76
2023/06/28 04:43:26;;;;;;;15.82;5.63;;;;;;;15.48;100.00;101513.72;6220519;23;20012;-75
2023/06/28 04:45:51;;;;;;;11.48;5.90;;;;;;;15.69;100.00;101535.78;6195488;23;20150;-75
2023/06/28 04:48:17;;;;;;;9.60;5.55;;;;;;;15.59;100.00;101532.97;6194881;23;20150;-75
2023/06/28 04:50:47;;;;;;;15.32;6.03;;;;;;;15.59;100.00;101531.09;6195467;23;20020;-75
2023/06/28 04:53:13;;;;;;;11.10;5.50;;;;;;;15.49;100.00;101532.91;6171490;23;20008;-75
2023/06/28 04:55:38;;;;;;;11.23;5.82;;;;;;;15.57;100.00;101527.56;6195232;23;20012;-75
2023/06/28 04:58:05;;;;;;;12.85;5.40;;;;;;;15.58;100.00;101539.50;6170818;23;20031;-74
2023/06/28 05:00:35;;;;;;;11.55;5.70;;;;;;;15.59;100.00;101533.84;6195451;23;20004;-74
2023/06/28 05:03:04;;;;;;;10.93;5.53;;;;;;;15.65;100.00;101535.19;6171448;23;20027;-75
2023/06/28 05:05:29;;;;;;;14.68;5.95;;;;;;;15.43;100.00;101531.59;6195745;23;20399;-75
2023/06/28 05:07:59;;;;;;;12.35;6.05;;;;;;;15.65;100.00;101540.69;6195223;23;20028;-75
2023/06/28 05:10:27;;;;;;;16.52;5.63;;;;;;;15.56;100.00;101528.59;6195284;23;20445;-75
2023/06/28 05:12:53;;;;;;;14.32;5.75;;;;;;;15.70;100.00;101543.91;6195113;23;20066;-75
2023/06/28 05:15:19;;;;;;;13.93;6.38;;;;;;;15.71;100.00;101540.16;6194983;23;20091;-76
2023/06/28 05:17:44;;;;;;;18.77;6.20;;;;;;;15.77;100.00;101533.22;6219778;23;20012;-75
2023/06/28 05:20:10;;;;;;;19.25;5.70;;;;;;;15.73;100.00;101540.03;6170708;23;20014;-75
2023/06/28 05:22:42;;;;;;;12.80;5.75;;;;;;;15.77;100.00;101535.97;6246739;23;20004;-75
2023/06/28 05:25:10;;;;;;;12.90;5.68;;;;;;;15.62;100.00;101513.38;6195859;23;20127;-75
2023/06/28 05:27:35;;;;;;;16.50;5.72;;;;;;;15.70;100.00;101532.00;6219834;23;20008;-76
2023/06/28 05:30:01;;;;;;;20.38;5.88;;;;;;;15.67;100.00;101519.34;6194645;23;20432;-76
2023/06/28 05:32:26;;;;;;;16.38;6.03;;;;;;;15.71;100.00;101519.94;6169473;23;20016;-75
2023/06/28 05:34:54;;;;;;;13.75;5.85;;;;;;;15.89;100.00;101515.56;6220273;23;20028;-75
2023/06/28 05:37:20;;;;;;;20.80;6.25;;;;;;;16.03;100.00;101529.97;6194492;23;20039;-75
2023/06/28 05:39:45;;;;;;;12.60;5.90;;;;;;;15.95;100.00;101531.56;6219910;23;20004;-75
2023/06/28 05:42:11;;;;;;;58.55;7.85;;;;;;;15.93;100.00;101535.47;6194839;23;20510;-75
2023/06/28 05:44:36;;;;;;;24.98;6.72;;;;;;;16.06;100.00;101535.22;6219957;23;20008;-75
2023/06/28 05:47:02;;;;;;;15.32;6.07;;;;;;;16.00;100.00;101533.88;6219939;23;20436;-75
2023/06/28 05:49:27;;;;;;;18.85;6.75;;;;;;;16.10;100.00;101528.41;6219805;23;20020;-75
2023/06/28 05:51:55;;;;;;;56.72;8.30;;;;;;;16.20;100.00;101537.59;6220174;23;20416;-77
2023/06/28 05:54:21;;;;;;;36.17;7.68;;;;;;;16.18;100.00;101523.03;6194727;23;20016;-75
2023/06/28 05:56:46;;;;;;;27.00;6.57;;;;;;;16.20;100.00;101531.19;6194888;23;20297;-75
2023/06/28 05:59:12;;;;;;;16.23;6.00;;;;;;;16.14;100.00;101533.50;6194343;23;20008;-75
2023/06/28 06:01:40;;;;;;;11.00;5.97;;;;;;;16.14;100.00;101524.34;6194998;23;20015;-75
2023/06/28 06:04:06;;;;;;;19.27;6.80;;;;;;;16.15;100.00;101538.03;6219557;23;20012;-75
2023/06/28 06:06:31;;;;;;;19.75;6.00;;;;;;;16.03;100.00;101513.41;6169449;23;20008;-75
2023/06/28 06:08:57;;;;;;;17.20;6.57;;;;;;;16.28;100.00;101528.59;6169372;23;20399;-75
2023/06/28 06:11:22;;;;;;;17.70;5.95;;;;;;;16.05;100.00;101517.75;6169603;23;20046;-76
2023/06/28 06:13:48;;;;;;;16.10;5.82;;;;;;;16.17;100.00;101524.94;6169853;23;20415;-76
2023/06/28 06:16:13;;;;;;;17.00;6.38;;;;;;;16.33;100.00;101529.03;6194714;23;20099;-76
2023/06/28 06:18:40;;;;;;;12.57;5.72;;;;;;;16.24;100.00;101522.47;6214260;23;20106;-76
2023/06/28 06:21:12;;;;;;;12.73;6.07;;;;;;;16.27;100.00;101527.72;6213951;23;20009;-75
2023/06/28 06:23:37;;;;;;;14.73;6.25;;;;;;;16.20;100.00;101517.38;6189010;23;20039;-75
2023/06/28 06:26:04;;;;;;;16.17;5.47;;;;;;;16.22;100.00;101518.13;6189249;23;20071;-76
2023/06/28 06:28:38;;;;;;;18.40;6.30;;;;;;;16.27;100.00;101508.38;6189053;23;20028;-75
2023/06/28 06:31:04;;;;;;;17.80;6.65;;;;;;;16.25;100.00;101509.53;6215696;23;20009;-75
2023/06/28 06:33:29;;;;;;;15.50;6.28;;;;;;;16.39;100.00;101525.69;6164453;23;20523;-75
2023/06/28 06:35:55;;;;;;;14.57;5.93;;;;;;;16.52;100.00;101515.22;6189348;23;20388;-75
2023/06/28 06:38:20;;;;;;;14.65;6.90;;;;;;;16.59;100.00;101522.97;6214172;23;20099;-75
2023/06/28 06:40:48;;;;;;;13.93;6.10;;;;;;;16.56;100.00;101520.47;6214329;23;20004;-76
2023/06/28 06:43:13;;;;;;;14.57;6.35;;;;;;;16.62;100.00;101515.25;6189421;23;20012;-75
2023/06/28 06:45:39;;;;;;;15.57;6.45;;;;;;;16.59;100.00;101521.06;6188917;23;20013;-76
2023/06/28 06:48:05;;;;;;;18.33;6.60;;;;;;;16.65;100.00;101525.16;6139714;23;20147;-76
2023/06/28 06:50:30;;;;;;;15.25;6.03;;;;;;;16.57;100.00;101525.88;6213826;23;20009;-75
2023/06/28 06:52:56;;;;;;;17.05;6.78;;;;;;;16.53;100.00;101528.06;6213862;23;20099;-75
2023/06/28 06:55:23;;;;;;;15.98;6.53;;;;;;;16.63;100.00;101532.72;6189088;23;20064;-77
2023/06/28 06:57:48;;;;;;;12.80;6.43;;;;;;;16.48;100.00;101524.84;6213972;23;20008;-75
2023/06/28 07:00:16;;;;;;;24.40;6.55;;;;;;;16.59;100.00;101526.59;6164277;23;20011;-76
2023/06/28 07:02:41;;;;;;;22.33;6.18;;;;;;;16.69;100.00;101532.13;6165297;23;20020;-76
2023/06/28 07:05:07;;;;;;;17.85;6.80;;;;;;;16.62;100.00;101529.06;6213319;23;20017;-77
2023/06/28 07:07:33;;;;;;;14.77;6.72;;;;;;;16.75;100.00;101534.31;6215737;23;20016;-75
2023/06/28 07:09:58;;;;;;;17.88;6.95;;;;;;;16.85;100.00;101543.50;6213819;23;20117;-76
2023/06/28 07:12:23;;;;;;;22.65;7.82;;;;;;;16.79;100.00;101523.84;6214135;23;20012;-76
2023/06/28 07:14:49;;;;;;;14.35;6.80;;;;;;;16.94;100.00;101540.88;6188746;23;20082;-76
2023/06/28 07:17:14;;;;;;;21.58;6.85;;;;;;;16.89;100.00;101535.81;6182024;23;20105;-76
2023/06/28 07:19:40;;;;;;;15.98;6.47;;;;;;;16.82;100.00;101534.59;6159062;23;20037;-76
2023/06/28 07:22:05;;;;;;;16.85;7.13;;;;;;;16.93;100.00;101540.03;6134834;23;20341;-75
2023/06/28 07:24:31;;;;;;;17.08;6.72;;;;;;;17.03;100.00;101529.81;6159587;23;20013;-76
2023/06/28 07:26:57;;;;;;;13.55;6.53;;;;;;;16.97;100.00;101535.06;6159570;23;20047;-75
2023/06/28 07:29:27;;;;;;;15.13;7.30;;;;;;;17.02;100.00;101538.25;6159981;23;20437;-75
2023/06/28 07:31:53;;;;;;;15.15;6.93;;;;;;;17.06;100.00;101539.72;6134409;23;20013;-75
2023/06/28 07:34:19;;;;;;;16.27;6.90;;;;;;;16.97;100.00;101540.59;6183679;23;20459;-76
2023/06/28 07:36:45;;;;;;;15.35;6.97;;;;;;;17.09;100.00;101533.91;6158904;23;20092;-75
2023/06/28 07:39:11;;;;;;;13.65;6.38;;;;;;;17.19;100.00;101533.91;6158682;23;20104;-76
2023/06/28 07:41:37;;;;;;;15.15;7.07;;;;;;;17.29;100.00;101536.66;6183630;23;20076;-76
2023/06/28 07:44:02;;;;;;;16.30;7.40;;;;;;;17.36;100.00;101527.56;6159158;23;20013;-75
2023/06/28 07:46:28;;;;;;;20.90;8.00;;;;;;;17.47;100.00;101534.84;6208999;23;20012;-75
2023/06/28 07:48:56;;;;;;;15.85;7.45;;;;;;;17.45;100.00;101518.38;6183755;23;20080;-75
2023/06/28 07:51:21;;;;;;;23.67;7.97;;;;;;;17.42;100.00;101515.91;6159273;23;20298;-75
2023/06/28 07:53:47;;;;;;;14.48;7.57;;;;;;;17.71;100.00;101531.56;6134284;23;20013;-75
2023/06/28 07:56:13;;;;;;;12.73;7.40;;;;;;;17.79;100.00;101531.69;6183704;23;20405;-75
2023/06/28 07:58:39;;;;;;;16.33;7.20;;;;;;;17.73;100.00;101525.88;6183595;23;20341;-76
2023/06/28 08:01:04;;;;;;;16.58;6.10;;;;;;;17.52;100.00;101523.31;6183476;23;20013;-76
2023/06/28 08:03:30;;;;;;;18.80;6.30;;;;;;;17.77;100.00;101541.16;6159250;23;20096;-75
2023/06/28 08:05:55;;;;;;;18.25;6.30;;;;;;;17.54;100.00;101532.34;6183575;23;20096;-75
2023/06/28 08:08:21;;;;;;;17.40;6.63;;;;;;;17.86;100.00;101542.16;6134732;23;20095;-77
2023/06/28 08:10:46;;;;;;;15.90;6.38;;;;;;;17.71;100.00;101537.09;6159058;23;20028;-77
2023/06/28 08:13:12;;;;;;;14.02;5.65;;;;;;;17.77;100.00;101538.38;6159128;23;20020;-76
2023/06/28 08:15:38;;;;;;;16.73;6.32;;;;;;;17.63;100.00;101521.25;6158964;23;20040;-75
2023/06/28 08:18:09;;;;;;;16.70;5.45;;;;;;;17.79;100.00;101542.75;6200919;23;20410;-76
2023/06/28 08:20:35;;;;;;;15.35;6.05;;;;;;;17.66;100.00;101531.16;6214298;23;20009;-76
2023/06/28 08:23:00;;;;;;;19.60;6.10;;;;;;;17.80;100.00;101538.09;6215463;23;20373;-76
2023/06/28 08:25:26;;;;;;;24.98;6.00;;;;;;;17.91;100.00;101537.06;6215612;23;20054;-76
2023/06/28 08:27:51;;;;;;;18.02;5.97;;;;;;;17.93;100.00;101540.53;6215892;23;20072;-75
2023/06/28 08:30:17;;;;;;;16.13;5.15;;;;;;;17.96;100.00;101545.78;6215398;23;20005;-76
2023/06/28 08:32:43;;;;;;;23.45;7.00;;;;;;;18.02;100.00;101541.50;6165894;23;20091;-76
2023/06/28 08:35:09;;;;;;;17.50;5.85;;;;;;;18.07;100.00;101523.41;6190393;23;20020;-76
2023/06/28 08:37:34;;;;;;;17.35;6.75;;;;;;;18.24;100.00;101526.38;6216480;23;20013;-76
2023/06/28 08:40:01;;;;;;;16.77;5.95;;;;;;;18.37;100.00;101529.66;6215485;23;20429;-77
2023/06/28 08:42:29;;;;;;;14.63;5.97;;;;;;;18.57;100.00;101523.97;6241085;23;20444;-77
2023/06/28 08:44:57;;;;;;;24.33;6.75;;;;;;;18.66;100.00;101531.31;6191070;23;20015;-77
2023/06/28 08:47:28;;;;;;;14.85;6.32;;;;;;;18.64;100.00;101533.38;6217378;23;20008;-77
2023/06/28 08:49:54;;;;;;;19.70;7.85;;;;;;;18.54;100.00;101527.91;6215639;23;20013;-77
2023/06/28 08:52:22;;;;;;;18.63;6.25;;;;;;;18.43;100.00;101533.69;6190381;23;20547;-76
2023/06/28 08:54:48;;;;;;;21.98;7.13;;;;;;;18.34;100.00;101518.88;6191314;23;20020;-77
2023/06/28 08:57:16;;;;;;;26.70;7.88;;;;;;;18.42;100.00;101537.50;6215591;23;20016;-77
2023/06/28 08:59:45;;;;;;;19.70;7.20;;;;;;;18.29;100.00;101524.00;6215524;23;20008;-77
2023/06/28 09:02:16;;;;;;;20.77;8.00;;;;;;;18.35;100.00;101524.25;6191477;23;20436;-77
2023/06/28 09:04:42;;;;;;;17.45;7.78;;;;;;;18.55;100.00;101533.31;6215531;23;20430;-77
2023/06/28 09:07:08;;;;;;;23.42;7.97;;;;;;;18.61;100.00;101536.47;6190882;23;20005;-77
2023/06/28 09:09:35;;;;;;;23.77;7.28;;;;;;;18.64;100.00;101525.06;6190826;23;20345;-77
2023/06/28 09:12:05;;;;;;;19.80;7.50;;;;;;;18.76;100.00;101534.03;6190801;23;20013;-77
2023/06/28 09:14:31;;;;;;;20.17;7.72;;;;;;;18.65;100.00;101541.56;6191578;23;20022;-78
2023/06/28 09:16:56;;;;;;;21.05;7.65;;;;;;;18.58;100.00;101523.81;6143903;23;20433;-77
2023/06/28 09:19:21;;;;;;;18.38;7.10;;;;;;;18.58;100.00;101528.47;6221393;23;20321;-77
2023/06/28 09:21:47;;;;;;;15.80;7.13;;;;;;;18.56;100.00;101531.41;6247417;23;20010;-77
2023/06/28 09:24:13;;;;;;;18.05;7.15;;;;;;;18.63;100.00;101528.88;6195446;23;20016;-77
2023/06/28 09:26:41;;;;;;;51.33;8.02;;;;;;;18.67;100.00;101524.75;6195749;23;20051;-77
2023/06/28 09:29:11;;;;;;;22.25;7.45;;;;;;;18.60;100.00;101523.66;6195139;23;20015;-77
2023/06/28 09:31:41;;;;;;;20.90;6.53;;;;;;;18.55;100.00;101527.75;6194775;23;20019;-77
2023/06/28 09:34:07;;;;;;;20.55;6.90;;;;;;;18.60;100.00;101513.41;6246621;23;20008;-78
2023/06/28 09:36:33;;;;;;;33.45;7.72;;;;;;;18.76;100.00;101525.69;6246893;23;20008;-78
2023/06/28 09:39:05;;;;;;;18.38;6.95;;;;;;;18.88;100.00;101522.56;6219798;23;20016;-77
2023/06/28 09:41:41;;;;;;;17.77;6.90;;;;;;;19.18;100.00;101525.06;6220918;23;20004;-77
2023/06/28 09:44:11;;;;;;;22.98;7.25;;;;;;;19.24;100.00;101519.72;6196231;23;20033;-77
2023/06/28 09:46:47;;;;;;;12.07;6.65;;;;;;;19.38;100.00;101528.50;6195427;23;20012;-76
2023/06/28 09:49:22;;;;;;;25.13;7.70;;;;;;;19.55;100.00;101524.81;6195008;23;20008;-76
2023/06/28 09:52:04;;;;;;;22.52;6.90;;;;;;;19.44;100.00;101517.59;6195332;23;20012;-76
2023/06/28 09:54:33;;;;;;;19.73;6.15;;;;;;;19.39;100.00;101528.34;6195077;23;20066;-76
2023/06/28 09:57:00;;;;;;;17.67;6.13;;;;;;;19.52;100.00;101522.34;6220193;23;20053;-76
2023/06/28 09:59:35;;;;;;;14.35;5.63;;;;;;;19.70;100.00;101526.97;6220465;23;20004;-76
2023/06/28 10:02:05;;;;;;;32.97;6.22;;;;;;;19.55;100.00;101532.28;6220492;23;20035;-76
2023/06/28 10:04:34;;;;;;;13.48;6.35;;;;;;;19.63;100.00;101524.00;6220559;23;20012;-76
2023/06/28 10:07:02;;;;;;;21.05;6.05;;;;;;;19.65;100.00;101524.69;6194938;23;20340;-76
2023/06/28 10:09:40;;;;;;;16.70;5.15;;;;;;;19.67;100.00;101519.84;6219535;23;20066;-76
2023/06/28 10:12:14;;;;;;;16.00;5.05;;;;;;;19.56;100.00;101507.13;6220215;23;20379;-76
2023/06/28 10:14:44;;;;;;;20.70;5.65;;;;;;;19.70;100.00;101513.09;6220173;23;20004;-76
2023/06/28 10:17:11;;;;;;;21.65;6.25;;;;;;;19.72;100.00;101514.66;6244659;23;20091;-77
2023/06/28 10:19:37;;;;;;;16.00;5.10;;;;;;;19.68;100.00;101512.34;6195293;23;20077;-76
2023/06/28 10:22:04;;;;;;;16.48;5.75;;;;;;;19.81;100.00;101515.63;6194823;23;20004;-76
2023/06/28 10:24:35;;;;;;;17.35;6.10;;;;;;;19.81;100.00;101510.06;6194629;23;20016;-76
2023/06/28 10:27:02;;;;;;;15.27;5.05;;;;;;;19.77;100.00;101509.50;6246527;23;20054;-76
2023/06/28 10:29:29;;;;;;;10.35;5.60;;;;;;;19.79;100.00;101512.09;6194596;23;20012;-76
2023/06/28 10:31:55;;;;;;;20.27;5.75;;;;;;;19.78;100.00;101502.91;6194562;23;20016;-76
2023/06/28 10:34:21;;;;;;;18.13;6.00;;;;;;;19.87;100.00;101506.59;6219711;23;20074;-76
2023/06/28 10:36:47;;;;;;;19.10;5.43;;;;;;;19.94;100.00;101507.69;6194646;23;20485;-76
2023/06/28 10:39:12;;;;;;;21.42;5.60;;;;;;;19.91;100.00;101508.00;6219750;23;20043;-77
2023/06/28 10:41:38;;;;;;;13.75;5.13;;;;;;;20.06;100.00;101505.47;6194434;23;20046;-76
2023/06/28 10:44:05;;;;;;;11.02;5.68;;;;;;;19.99;100.00;101516.38;6219663;23;20032;-76
2023/06/28 10:46:31;;;;;;;15.27;5.60;;;;;;;19.97;100.00;101510.13;6219906;23;20012;-77
2023/06/28 10:48:59;;;;;;;16.38;5.28;;;;;;;20.15;100.00;101501.69;6194808;23;20493;-77
2023/06/28 10:51:31;;;;;;;11.43;5.45;;;;;;;20.19;100.00;101511.41;6195112;23;20008;-77
2023/06/28 10:54:12;;;;;;;16.08;6.10;;;;;;;20.11;100.00;101513.31;6219744;23;20083;-77
2023/06/28 10:56:48;;;;;;;17.25;5.88;;;;;;;20.33;100.00;101509.91;6246586;23;20011;-77
2023/06/28 10:59:13;;;;;;;13.45;6.35;;;;;;;20.29;100.00;101511.28;6194694;23;20446;-77
2023/06/28 11:01:54;;;;;;;19.98;6.13;;;;;;;20.30;100.00;101512.13;6219781;23;20008;-77
2023/06/28 11:04:23;;;;;;;17.05;6.05;;;;;;;20.47;100.00;101505.56;6194765;23;20016;-77
2023/06/28 11:07:03;;;;;;;13.05;5.72;;;;;;;20.55;100.00;101497.25;6219246;23;20396;-77